createdAt,value
2022-12-25T00:00:55.142Z,7.72
2022-12-25T00:03:21.889Z,6.55
2022-12-25T00:05:48.543Z,7.22
2022-12-25T00:08:15.293Z,8.32
2022-12-25T00:10:45.307Z,7.45
2022-12-25T00:13:12.361Z,7.00
2022-12-25T00:15:42.229Z,6.68
2022-12-25T00:18:08.902Z,7.07
2022-12-25T00:20:36.018Z,6.10
2022-12-25T00:23:02.725Z,6.70
2022-12-25T00:25:29.449Z,6.90
2022-12-25T00:27:56.182Z,7.07
2022-12-25T00:30:22.704Z,7.15
2022-12-25T00:32:49.202Z,7.13
2022-12-25T00:35:15.914Z,6.30
2022-12-25T00:37:46.713Z,6.57
2022-12-25T00:40:13.517Z,6.60
2022-12-25T00:42:40.077Z,6.90
2022-12-25T00:45:07.084Z,6.53
2022-12-25T00:47:36.447Z,6.28
2022-12-25T00:50:03.114Z,5.82
2022-12-25T00:52:29.807Z,6.72
2022-12-25T00:54:56.486Z,6.22
2022-12-25T00:57:22.981Z,7.13
2022-12-25T00:59:49.925Z,6.40
2022-12-25T01:02:26.000Z,5.80
2022-12-25T01:04:56.183Z,6.45
2022-12-25T01:07:25.281Z,5.63
2022-12-25T01:10:10.715Z,6.00
2022-12-25T01:12:40.878Z,5.85
2022-12-25T01:15:09.433Z,6.22
2022-12-25T01:17:36.465Z,6.10
2022-12-25T01:20:03.878Z,5.82
2022-12-25T01:22:30.684Z,6.05
2022-12-25T01:24:57.268Z,5.90
2022-12-25T01:27:25.480Z,5.63
2022-12-25T01:29:52.084Z,6.35
2022-12-25T01:32:18.599Z,4.65
2022-12-25T01:34:48.147Z,5.43
2022-12-25T01:37:17.540Z,5.53
2022-12-25T01:39:44.298Z,4.82
2022-12-25T01:42:17.456Z,5.35
2022-12-25T01:44:46.761Z,5.43
2022-12-25T01:47:15.167Z,4.95
2022-12-25T01:49:46.409Z,4.75
2022-12-25T01:52:24.058Z,4.90
2022-12-25T01:54:59.369Z,5.80
2022-12-25T01:57:32.956Z,5.50
2022-12-25T02:00:03.719Z,5.22
2022-12-25T02:02:31.910Z,4.60
2022-12-25T02:05:04.115Z,5.20
2022-12-25T02:07:34.761Z,4.90
2022-12-25T02:10:01.387Z,5.43
2022-12-25T02:12:35.419Z,5.25
2022-12-25T02:15:06.743Z,4.60
2022-12-25T02:17:42.656Z,4.55
2022-12-25T02:21:03.362Z,5.18
2022-12-25T02:23:54.996Z,4.47
2022-12-25T02:26:55.531Z,5.03
2022-12-25T02:29:33.418Z,4.90
2022-12-25T02:32:06.313Z,5.35
2022-12-25T02:34:42.701Z,4.95
2022-12-25T02:37:15.958Z,5.47
2022-12-25T02:39:58.602Z,5.60
2022-12-25T02:43:06.863Z,5.75
2022-12-25T02:46:01.413Z,5.55
2022-12-25T02:48:50.493Z,6.03
2022-12-25T02:51:39.229Z,5.20
2022-12-25T02:54:31.067Z,4.75
2022-12-25T02:57:17.997Z,5.55
2022-12-25T03:00:07.200Z,5.25
2022-12-25T03:02:53.592Z,5.00
2022-12-25T03:05:43.015Z,4.55
2022-12-25T03:08:25.273Z,4.72
2022-12-25T03:11:18.207Z,4.38
2022-12-25T03:13:48.966Z,4.50
2022-12-25T03:16:34.642Z,5.20
2022-12-25T03:19:21.710Z,4.43
2022-12-25T03:22:06.820Z,4.45
2022-12-25T03:24:52.081Z,3.92
2022-12-25T03:27:18.986Z,4.07
2022-12-25T03:30:04.194Z,4.65
2022-12-25T03:32:51.750Z,5.15
2022-12-25T03:35:29.344Z,4.57
2022-12-25T03:38:42.646Z,4.57
2022-12-25T03:41:43.189Z,4.30
2022-12-25T03:44:43.206Z,4.50
2022-12-25T03:47:36.291Z,4.20
2022-12-25T03:50:33.437Z,3.95
2022-12-25T03:53:22.504Z,4.43
2022-12-25T03:56:11.358Z,4.22
2022-12-25T03:58:56.452Z,4.40
2022-12-25T04:01:41.712Z,4.05
2022-12-25T04:04:27.026Z,3.92
2022-12-25T04:07:12.044Z,4.35
2022-12-25T04:09:57.151Z,4.40
2022-12-25T04:12:42.101Z,5.90
2022-12-25T04:15:28.068Z,5.38
2022-12-25T04:18:13.036Z,5.65
2022-12-25T04:20:58.278Z,5.22
2022-12-25T04:23:43.467Z,5.32
2022-12-25T04:26:28.590Z,4.25
2022-12-25T04:29:13.618Z,4.68
2022-12-25T04:31:58.968Z,5.30
2022-12-25T04:34:44.289Z,5.10
2022-12-25T04:37:10.803Z,4.82
2022-12-25T04:39:37.338Z,5.50
2022-12-25T04:42:03.946Z,4.82
2022-12-25T04:44:32.740Z,5.50
2022-12-25T04:46:59.483Z,4.63
2022-12-25T04:49:26.005Z,5.03
2022-12-25T04:51:52.741Z,4.85
2022-12-25T04:54:19.362Z,5.20
2022-12-25T04:56:46.286Z,4.85
2022-12-25T04:59:13.252Z,5.32
2022-12-25T05:01:39.829Z,5.43
2022-12-25T05:04:06.631Z,5.47
2022-12-25T05:06:33.224Z,4.90
2022-12-25T05:08:59.781Z,4.47
2022-12-25T05:11:27.605Z,5.38
2022-12-25T05:13:54.225Z,4.75
2022-12-25T05:16:21.506Z,4.97
2022-12-25T05:18:50.756Z,5.05
2022-12-25T05:21:17.731Z,4.93
2022-12-25T05:23:50.635Z,4.78
2022-12-25T05:26:19.700Z,5.05
2022-12-25T05:28:46.931Z,5.00
2022-12-25T05:31:13.754Z,5.05
2022-12-25T05:33:40.410Z,4.50
2022-12-25T05:36:12.301Z,4.47
2022-12-25T05:38:39.461Z,4.88
2022-12-25T05:41:06.174Z,4.72
2022-12-25T05:43:33.086Z,4.45
2022-12-25T05:46:05.752Z,4.50
2022-12-25T05:48:33.919Z,4.78
2022-12-25T05:51:05.623Z,4.35
2022-12-25T05:53:32.247Z,4.15
2022-12-25T05:56:02.186Z,4.13
2022-12-25T05:58:29.557Z,4.22
2022-12-25T06:00:56.461Z,4.05
2022-12-25T06:03:24.346Z,4.70
2022-12-25T06:05:51.076Z,4.65
2022-12-25T06:08:17.970Z,4.30
2022-12-25T06:10:44.514Z,4.43
2022-12-25T06:13:11.209Z,4.20
2022-12-25T06:15:41.871Z,4.63
2022-12-25T06:18:08.645Z,3.70
2022-12-25T06:20:35.188Z,3.70
2022-12-25T06:23:02.169Z,4.35
2022-12-25T06:25:28.684Z,4.30
2022-12-25T06:27:55.096Z,4.68
2022-12-25T06:30:21.620Z,4.05
2022-12-25T06:32:48.284Z,3.97
2022-12-25T06:35:14.774Z,3.88
2022-12-25T06:37:41.345Z,4.28
2022-12-25T06:40:08.631Z,3.42
2022-12-25T06:42:35.338Z,4.13
2022-12-25T06:45:01.960Z,4.07
2022-12-25T06:47:28.400Z,4.30
2022-12-25T06:49:55.097Z,3.70
2022-12-25T06:52:21.747Z,4.18
2022-12-25T06:54:48.254Z,4.38
2022-12-25T06:57:14.760Z,3.95
2022-12-25T06:59:41.485Z,3.83
2022-12-25T07:02:16.927Z,4.72
2022-12-25T07:04:43.550Z,4.70
2022-12-25T07:07:10.520Z,4.70
2022-12-25T07:09:39.087Z,3.83
2022-12-25T07:12:07.316Z,3.97
2022-12-25T07:14:34.146Z,4.72
2022-12-25T07:17:00.738Z,4.20
2022-12-25T07:19:27.767Z,3.80
2022-12-25T07:21:54.233Z,3.55
2022-12-25T07:24:22.107Z,3.35
2022-12-25T07:26:49.751Z,3.35
2022-12-25T07:29:16.884Z,3.50
2022-12-25T07:31:43.562Z,3.47
2022-12-25T07:34:10.503Z,3.63
2022-12-25T07:36:37.196Z,3.90
2022-12-25T07:39:04.190Z,3.42
2022-12-25T07:41:30.687Z,3.72
2022-12-25T07:44:13.326Z,4.32
2022-12-25T07:46:39.889Z,3.33
2022-12-25T07:49:06.680Z,4.20
2022-12-25T07:51:33.314Z,4.10
2022-12-25T07:53:59.999Z,4.38
2022-12-25T07:56:26.663Z,3.95
2022-12-25T07:58:53.236Z,3.55
2022-12-25T08:01:22.921Z,3.67
2022-12-25T08:03:54.948Z,3.70
2022-12-25T08:06:23.203Z,3.58
2022-12-25T08:08:49.767Z,4.03
2022-12-25T08:11:16.801Z,3.88
2022-12-25T08:13:43.370Z,4.45
2022-12-25T08:16:11.109Z,5.47
2022-12-25T08:18:39.063Z,5.32
2022-12-25T08:21:08.947Z,5.03
2022-12-25T08:23:38.213Z,5.05
2022-12-25T08:26:06.664Z,5.40
2022-12-25T08:28:34.367Z,5.63
2022-12-25T08:31:06.996Z,5.30
2022-12-25T08:33:33.687Z,5.13
2022-12-25T08:36:05.823Z,4.50
2022-12-25T08:38:33.013Z,4.10
2022-12-25T08:40:59.843Z,4.03
2022-12-25T08:43:27.383Z,3.90
2022-12-25T08:45:53.914Z,4.03
2022-12-25T08:48:20.492Z,4.90
2022-12-25T08:50:51.406Z,4.20
2022-12-25T08:53:20.176Z,3.88
2022-12-25T08:55:46.774Z,3.72
2022-12-25T08:58:14.757Z,3.72
2022-12-25T09:00:41.579Z,3.75
2022-12-25T09:03:08.164Z,3.80
2022-12-25T09:05:36.176Z,3.28
2022-12-25T09:08:02.928Z,3.67
2022-12-25T09:10:29.905Z,3.90
2022-12-25T09:12:56.598Z,3.70
2022-12-25T09:15:23.123Z,4.85
2022-12-25T09:17:49.723Z,5.13
2022-12-25T09:20:16.332Z,6.32
2022-12-25T09:22:42.972Z,7.90
2022-12-25T09:25:09.766Z,7.38
2022-12-25T09:27:36.524Z,6.75
2022-12-25T09:30:04.675Z,6.13
2022-12-25T09:32:31.406Z,4.15
2022-12-25T09:34:58.169Z,3.75
2022-12-25T09:37:24.855Z,4.40
2022-12-25T09:39:51.372Z,3.50
2022-12-25T09:42:24.967Z,4.00
2022-12-25T09:44:59.234Z,3.35
2022-12-25T09:47:30.822Z,3.85
2022-12-25T09:50:11.599Z,4.22
2022-12-25T09:52:55.058Z,3.55
2022-12-25T09:55:24.512Z,4.03
2022-12-25T09:58:00.827Z,3.90
2022-12-25T10:00:35.566Z,3.70
2022-12-25T10:03:08.066Z,4.03
2022-12-25T10:05:52.102Z,3.58
2022-12-25T10:08:41.970Z,3.50
2022-12-25T10:11:33.366Z,3.60
2022-12-25T10:14:44.343Z,3.88
2022-12-25T10:17:13.653Z,3.65
2022-12-25T10:19:51.723Z,4.90
2022-12-25T10:22:33.711Z,4.32
2022-12-25T10:25:02.538Z,3.65
2022-12-25T10:27:37.125Z,3.63
2022-12-25T10:30:17.287Z,3.65
2022-12-25T10:32:45.579Z,3.80
2022-12-25T10:35:14.460Z,3.45
2022-12-25T10:37:43.150Z,3.33
2022-12-25T10:40:29.863Z,3.70
2022-12-25T10:43:07.568Z,3.97
2022-12-25T10:45:44.026Z,3.60
2022-12-25T10:48:21.662Z,3.47
2022-12-25T10:50:48.947Z,3.53
2022-12-25T10:53:27.223Z,3.00
2022-12-25T10:55:59.268Z,3.38
2022-12-25T10:58:26.455Z,2.95
2022-12-25T11:00:56.847Z,3.13
2022-12-25T11:03:27.236Z,3.30
2022-12-25T11:05:54.661Z,3.22
2022-12-25T11:08:24.447Z,3.78
2022-12-25T11:11:09.123Z,3.22
2022-12-25T11:13:40.895Z,3.50
2022-12-25T11:16:13.759Z,3.10
2022-12-25T11:18:49.477Z,3.47
2022-12-25T11:21:22.138Z,3.50
2022-12-25T11:24:04.167Z,4.03
2022-12-25T11:26:36.901Z,3.80
2022-12-25T11:29:10.700Z,3.90
2022-12-25T11:31:41.218Z,3.75
2022-12-25T11:34:26.279Z,4.18
2022-12-25T11:36:53.437Z,3.92
2022-12-25T11:39:36.384Z,3.67
2022-12-25T11:42:11.828Z,3.65
2022-12-25T11:44:49.522Z,4.20
2022-12-25T11:47:31.023Z,3.78
2022-12-25T11:50:36.663Z,4.03
2022-12-25T11:53:06.727Z,3.40
2022-12-25T11:55:43.181Z,3.92
2022-12-25T11:58:22.604Z,3.15
2022-12-25T12:00:54.136Z,3.53
2022-12-25T12:03:27.129Z,3.25
2022-12-25T12:06:04.863Z,3.85
2022-12-25T12:08:33.538Z,2.92
2022-12-25T12:11:17.949Z,4.15
2022-12-25T12:13:57.592Z,3.50
2022-12-25T12:16:24.436Z,3.75
2022-12-25T12:18:51.313Z,3.67
2022-12-25T12:21:17.860Z,3.50
2022-12-25T12:24:17.225Z,4.32
2022-12-25T12:26:46.329Z,4.03
2022-12-25T12:29:38.878Z,4.10
2022-12-25T12:32:20.222Z,4.35
2022-12-25T12:34:50.155Z,4.40
2022-12-25T12:37:30.701Z,4.20
2022-12-25T12:39:58.096Z,3.50
2022-12-25T12:42:33.158Z,4.00
2022-12-25T12:45:28.753Z,3.33
2022-12-25T12:47:55.761Z,3.80
2022-12-25T12:50:33.361Z,3.83
2022-12-25T12:53:12.497Z,3.55
2022-12-25T12:55:39.081Z,3.95
2022-12-25T12:58:06.199Z,4.22
2022-12-25T13:00:51.921Z,3.95
2022-12-25T13:03:34.660Z,4.40
2022-12-25T13:06:17.387Z,4.22
2022-12-25T13:08:46.743Z,4.03
2022-12-25T13:11:16.628Z,4.00
2022-12-25T13:13:45.418Z,3.58
2022-12-25T13:16:30.957Z,3.70
2022-12-25T13:18:58.008Z,3.67
2022-12-25T13:21:29.549Z,3.40
2022-12-25T13:24:01.507Z,3.20
2022-12-25T13:26:29.149Z,3.60
2022-12-25T13:28:56.477Z,3.78
2022-12-25T13:31:28.150Z,6.40
2022-12-25T13:34:04.514Z,7.25
2022-12-25T13:36:37.359Z,6.72
2022-12-25T13:39:08.634Z,6.20
2022-12-25T13:42:05.842Z,5.20
2022-12-25T13:44:49.652Z,4.97
2022-12-25T13:47:25.390Z,5.18
2022-12-25T13:49:54.891Z,4.85
2022-12-25T13:52:28.177Z,6.60
2022-12-25T13:54:57.370Z,6.07
2022-12-25T13:57:35.232Z,5.97
2022-12-25T14:00:02.542Z,5.38
2022-12-25T14:02:35.988Z,4.85
2022-12-25T14:05:05.353Z,4.93
2022-12-25T14:07:32.181Z,4.15
2022-12-25T14:10:01.814Z,3.72
2022-12-25T14:12:30.281Z,3.88
2022-12-25T14:14:58.234Z,3.30
2022-12-25T14:17:25.617Z,3.42
2022-12-25T14:20:07.504Z,3.22
2022-12-25T14:22:36.059Z,3.00
2022-12-25T14:25:02.717Z,2.95
2022-12-25T14:27:32.388Z,2.67
2022-12-25T14:30:01.622Z,2.63
2022-12-25T14:32:31.401Z,2.58
2022-12-25T14:35:03.607Z,2.95
2022-12-25T14:37:32.668Z,2.75
2022-12-25T14:40:06.589Z,2.75
2022-12-25T14:42:37.803Z,2.58
2022-12-25T14:45:07.829Z,2.33
2022-12-25T14:47:51.275Z,3.35
2022-12-25T14:50:28.973Z,3.03
2022-12-25T14:52:56.562Z,3.00
2022-12-25T14:55:27.121Z,2.40
2022-12-25T14:58:06.179Z,2.45
2022-12-25T15:00:38.626Z,2.28
2022-12-25T15:03:17.455Z,2.60
2022-12-25T15:05:44.364Z,2.55
2022-12-25T15:08:13.771Z,2.42
2022-12-25T15:13:28.361Z,6.60
2022-12-25T15:16:00.922Z,5.53
2022-12-25T15:18:34.226Z,7.22
2022-12-25T15:21:01.041Z,6.90
2022-12-25T15:23:27.789Z,6.70
2022-12-25T15:25:54.583Z,5.82
2022-12-25T15:28:21.231Z,4.13
2022-12-25T15:30:49.751Z,4.43
2022-12-25T15:33:18.330Z,4.50
2022-12-25T15:35:45.094Z,3.80
2022-12-25T15:38:12.807Z,5.95
2022-12-25T15:40:40.290Z,5.47
2022-12-25T15:43:14.543Z,4.53
2022-12-25T15:45:49.063Z,3.58
2022-12-25T15:48:15.581Z,3.22
2022-12-25T15:50:42.761Z,5.10
2022-12-25T15:53:10.829Z,3.92
2022-12-25T15:55:37.818Z,4.15
2022-12-25T15:58:04.510Z,4.60
2022-12-25T16:00:31.401Z,3.30
2022-12-25T16:02:58.619Z,3.85
2022-12-25T16:05:26.842Z,3.83
2022-12-25T16:07:53.351Z,4.15
2022-12-25T16:10:20.381Z,5.15
2022-12-25T16:12:47.335Z,4.03
2022-12-25T16:15:15.616Z,4.70
2022-12-25T16:17:42.937Z,5.43
2022-12-25T16:20:10.095Z,4.68
2022-12-25T16:22:40.159Z,5.18
2022-12-25T16:25:13.269Z,5.35
2022-12-25T16:27:39.849Z,5.72
2022-12-25T16:30:07.115Z,4.53
2022-12-25T16:32:33.844Z,5.63
2022-12-25T16:35:00.525Z,7.00
2022-12-25T16:37:27.735Z,5.18
2022-12-25T16:39:54.278Z,4.93
2022-12-25T16:42:21.093Z,4.50
2022-12-25T16:44:47.775Z,4.35
2022-12-25T16:47:14.305Z,4.05
2022-12-25T16:49:40.895Z,3.85
2022-12-25T16:52:07.550Z,3.67
2022-12-25T16:54:34.101Z,6.88
2022-12-25T16:57:00.739Z,4.80
2022-12-25T16:59:30.859Z,4.70
2022-12-25T17:01:57.612Z,6.18
2022-12-25T17:04:25.303Z,5.32
2022-12-25T17:06:52.122Z,6.43
2022-12-25T17:09:18.805Z,6.03
2022-12-25T17:11:45.655Z,5.18
2022-12-25T17:14:12.285Z,4.38
2022-12-25T17:16:39.921Z,6.53
2022-12-25T17:19:18.077Z,4.40
2022-12-25T17:21:44.840Z,4.05
2022-12-25T17:24:11.999Z,3.40
2022-12-25T17:26:40.689Z,4.63
2022-12-25T17:29:08.915Z,8.77
2022-12-25T17:31:35.949Z,5.28
2022-12-25T17:34:03.176Z,5.20
2022-12-25T17:36:30.775Z,7.05
2022-12-25T17:39:01.432Z,5.53
2022-12-25T17:41:28.544Z,3.90
2022-12-25T17:43:55.148Z,5.28
2022-12-25T17:46:24.423Z,4.75
2022-12-25T17:48:52.466Z,3.90
2022-12-25T17:51:23.944Z,4.13
2022-12-25T17:53:56.271Z,4.13
2022-12-25T17:56:23.951Z,2.88
2022-12-25T17:58:53.147Z,4.80
2022-12-25T18:01:20.680Z,5.82
2022-12-25T18:03:47.759Z,6.20
2022-12-25T18:06:19.291Z,6.85
2022-12-25T18:08:48.437Z,5.63
2022-12-25T18:11:21.261Z,8.90
2022-12-25T18:13:51.883Z,5.68
2022-12-25T18:16:20.560Z,4.65
2022-12-25T18:18:51.821Z,4.28
2022-12-25T18:21:20.174Z,4.65
2022-12-25T18:23:47.068Z,5.40
2022-12-25T18:26:13.846Z,5.55
2022-12-25T18:28:42.579Z,4.90
2022-12-25T18:31:22.854Z,4.13
2022-12-25T18:33:50.414Z,4.22
2022-12-25T18:36:21.175Z,3.97
2022-12-25T18:38:50.414Z,4.15
2022-12-25T18:41:17.863Z,4.30
2022-12-25T18:43:52.062Z,5.30
2022-12-25T18:46:24.557Z,5.30
2022-12-25T18:48:52.458Z,5.00
2022-12-25T18:51:19.329Z,4.97
2022-12-25T18:53:46.137Z,6.55
2022-12-25T18:56:18.155Z,6.80
2022-12-25T18:58:46.185Z,4.75
2022-12-25T19:01:13.869Z,5.00
2022-12-25T19:03:40.673Z,4.85
2022-12-25T19:06:07.769Z,5.85
2022-12-25T19:08:38.843Z,6.93
2022-12-25T19:11:08.628Z,4.15
2022-12-25T19:13:35.835Z,4.25
2022-12-25T19:16:02.440Z,3.97
2022-12-25T19:18:30.304Z,4.03
2022-12-25T19:20:56.873Z,3.78
2022-12-25T19:23:23.713Z,3.53
2022-12-25T19:25:50.325Z,3.38
2022-12-25T19:28:17.815Z,3.53
2022-12-25T19:30:44.711Z,2.90
2022-12-25T19:33:17.514Z,2.97
2022-12-25T19:35:44.673Z,2.67
2022-12-25T19:38:11.401Z,2.80
2022-12-25T19:40:39.973Z,2.30
2022-12-25T19:43:07.737Z,2.53
2022-12-25T19:45:34.514Z,2.30
2022-12-25T19:48:01.422Z,2.80
2022-12-25T19:50:32.346Z,2.50
2022-12-25T19:52:59.179Z,2.58
2022-12-25T19:55:25.985Z,2.67
2022-12-25T19:57:52.671Z,2.35
2022-12-25T20:00:19.329Z,3.03
2022-12-25T20:02:47.725Z,2.90
2022-12-25T20:05:14.344Z,2.47
2022-12-25T20:07:40.956Z,2.90
2022-12-25T20:10:07.821Z,2.90
2022-12-25T20:12:34.538Z,3.17
2022-12-25T20:15:01.336Z,2.88
2022-12-25T20:17:27.881Z,2.30
2022-12-25T20:19:54.429Z,2.65
2022-12-25T20:22:21.224Z,2.20
2022-12-25T20:24:49.101Z,2.58
2022-12-25T20:27:15.710Z,2.97
2022-12-25T20:29:42.449Z,2.80
2022-12-25T20:32:09.638Z,2.88
2022-12-25T20:34:36.484Z,3.33
2022-12-25T20:37:03.300Z,3.50
2022-12-25T20:39:29.961Z,4.82
2022-12-25T20:41:56.659Z,2.70
2022-12-25T20:44:23.325Z,2.75
2022-12-25T20:46:50.094Z,2.22
2022-12-25T20:49:16.719Z,3.13
2022-12-25T20:51:43.573Z,2.75
2022-12-25T20:54:10.795Z,2.33
2022-12-25T20:56:37.628Z,2.38
2022-12-25T20:59:04.159Z,2.67
2022-12-25T21:01:31.869Z,2.58
2022-12-25T21:03:59.448Z,2.63
2022-12-25T21:06:26.463Z,2.75
2022-12-25T21:08:53.479Z,2.20
2022-12-25T21:11:21.441Z,2.40
2022-12-25T21:13:48.674Z,2.60
2022-12-25T21:16:22.272Z,2.50
2022-12-25T21:18:50.698Z,2.70
2022-12-25T21:21:17.306Z,2.95
2022-12-25T21:23:44.351Z,2.33
2022-12-25T21:26:19.170Z,2.55
2022-12-25T21:28:50.635Z,2.20
2022-12-25T21:31:19.066Z,2.25
2022-12-25T21:33:52.657Z,2.38
2022-12-25T21:36:27.264Z,2.90
2022-12-25T21:38:59.415Z,2.83
2022-12-25T21:41:27.929Z,2.33
2022-12-25T21:43:54.747Z,3.30
2022-12-25T21:46:21.771Z,2.78
2022-12-25T21:48:49.303Z,2.90
2022-12-25T21:51:38.223Z,2.83
2022-12-25T21:54:05.692Z,2.45
2022-12-25T21:56:39.854Z,2.67
2022-12-25T21:59:12.537Z,2.70
2022-12-25T22:01:39.369Z,2.50
2022-12-25T22:04:08.758Z,2.53
2022-12-25T22:06:54.962Z,3.00
2022-12-25T22:09:22.065Z,2.88
2022-12-25T22:12:07.522Z,3.08
2022-12-25T22:14:56.590Z,2.72
2022-12-25T22:17:50.882Z,3.00
2022-12-25T22:20:24.456Z,2.90
2022-12-25T22:22:51.751Z,3.20
2022-12-25T22:25:19.457Z,2.95
2022-12-25T22:27:47.765Z,3.08
2022-12-25T22:30:21.051Z,2.95
2022-12-25T22:32:48.673Z,2.92
2022-12-25T22:35:16.569Z,2.78
2022-12-25T22:37:43.826Z,2.58
2022-12-25T22:40:13.993Z,2.50
2022-12-25T22:42:41.818Z,2.67
2022-12-25T22:45:09.010Z,2.80
2022-12-25T22:47:35.616Z,2.70
2022-12-25T22:50:02.491Z,3.47
2022-12-25T22:52:29.168Z,3.10
2022-12-25T22:54:55.896Z,2.42
2022-12-25T22:57:22.716Z,3.25
2022-12-25T22:59:51.807Z,2.90
2022-12-25T23:02:18.855Z,3.45
2022-12-25T23:04:45.628Z,3.08
2022-12-25T23:07:14.483Z,3.20
2022-12-25T23:09:42.385Z,3.35
2022-12-25T23:12:29.519Z,2.65
2022-12-25T23:14:57.074Z,3.25
2022-12-25T23:17:47.084Z,2.90
2022-12-25T23:20:33.618Z,3.00
2022-12-25T23:23:19.677Z,3.15
2022-12-25T23:26:05.107Z,3.00
2022-12-25T23:28:50.496Z,2.97
2022-12-25T23:31:17.245Z,2.88
2022-12-25T23:33:44.285Z,2.92
2022-12-25T23:36:10.947Z,3.30
2022-12-25T23:38:37.590Z,3.03
2022-12-25T23:41:04.438Z,2.88
2022-12-25T23:43:31.009Z,3.30
2022-12-25T23:45:57.651Z,2.97
2022-12-25T23:48:24.182Z,3.20
2022-12-25T23:50:50.675Z,3.60
2022-12-25T23:53:17.376Z,3.45
2022-12-25T23:55:45.713Z,3.35
2022-12-25T23:58:14.147Z,3.40
